UTAM

Details ICAO UTAM (MYP)
Name MARY
Region Tajikistan, Turkmenistan and Uzbekistan
Timezone Asia/Ashgabat (UTC+5.0)
Plans Departing 11
Arriving 16
Stats Elevation 728 ft / 222 m (AMSL)
Location 37.619514° 61.896806°
Runways 2
Magnetic Variation 4.670° E
Sunrise 2018-05-23 00:38:46 UTC / 2018-05-23 05:38:46 Local
Sunset 2018-05-23 15:02:23 UTC / 2018-05-23 20:02:23 Local
Advertisement - Login to hide

Runways

ID Width Length Bearing (true) Bearing (mag) Surface Threshold Offset Overrun Length
18L 147 ft / 45 m 9,126 ft / 2,782 m 178.49° 173.82° Concrete 0 ft / 0 m 0 ft / 0 m
18R 98 ft / 30 m 8,011 ft / 2,442 m 178.28° 173.61° Concrete 0 ft / 0 m 0 ft / 0 m
36L 98 ft / 30 m 8,011 ft / 2,442 m 358.28° 353.61° Concrete 0 ft / 0 m 0 ft / 0 m
36R 147 ft / 45 m 9,126 ft / 2,782 m 358.49° 353.82° Concrete 0 ft / 0 m 0 ft / 0 m

Map

Weather


0- 5 10 15 20 25 30 35+ Temperature / ° C

Clouds and Precipitation
Forecast for 2018-05-23 12:00 UTC. Updated 2 hours ago

Ground ~20,000 ft ~40,000 ft Winds

METAR

UTAM 231100Z 02004KT CAVOK 34/M03 Q1015 NOSIG

TAF

TAF UTAM 222230Z 2300/2324 01016KT CAVOK 530009 TEMPO 2300/2304 VRB04KT 3000 HZ NSC TEMPO 2306/2313 02012G22KT 5000 SCT050

Frequencies

Tower 122.20 MHz TWR
Approach 124.00 MHz RADAR
Warning: Do not use this data for real-world aviation or navigation. No guarantee of current accuracy is given.